createdAt,value
2018-12-09T00:00:12.112Z,2.93
2018-12-09T00:02:40.341Z,2.20
2018-12-09T00:05:08.676Z,2.93
2018-12-09T00:07:36.895Z,3.57
2018-12-09T00:10:05.671Z,2.40
2018-12-09T00:12:33.869Z,2.10
2018-12-09T00:15:02.057Z,2.00
2018-12-09T00:17:30.168Z,2.27
2018-12-09T00:19:58.288Z,2.13
2018-12-09T00:22:26.449Z,2.07
2018-12-09T00:24:54.649Z,2.30
2018-12-09T00:27:22.796Z,1.97
2018-12-09T00:29:50.944Z,2.60
2018-12-09T00:32:19.193Z,2.70
2018-12-09T00:34:47.349Z,3.07
2018-12-09T00:37:15.605Z,2.57
2018-12-09T00:39:43.757Z,3.07
2018-12-09T00:42:11.929Z,2.87
2018-12-09T00:44:40.080Z,3.00
2018-12-09T00:47:08.279Z,3.20
2018-12-09T00:49:36.572Z,2.90
2018-12-09T00:52:04.919Z,3.07
2018-12-09T00:54:33.092Z,3.60
2018-12-09T00:57:01.390Z,4.37
2018-12-09T00:59:29.658Z,4.47
2018-12-09T01:01:57.976Z,3.73
2018-12-09T01:22:53.372Z,4.10
2018-12-09T01:25:21.635Z,4.50
2018-12-09T01:27:50.060Z,5.07
2018-12-09T01:30:18.301Z,4.20
2018-12-09T01:32:46.657Z,4.73
2018-12-09T01:35:14.964Z,4.70
2018-12-09T01:37:43.243Z,4.53
2018-12-09T01:40:11.398Z,4.77
2018-12-09T01:42:39.672Z,4.77
2018-12-09T01:45:08.182Z,4.50
2018-12-09T01:47:36.635Z,4.33
2018-12-09T01:50:05.653Z,3.87
2018-12-09T01:52:34.021Z,3.93
2018-12-09T01:55:02.293Z,4.37
2018-12-09T01:57:30.613Z,3.67
2018-12-09T01:59:58.845Z,4.70
2018-12-09T02:02:27.233Z,4.17
2018-12-09T02:04:55.453Z,3.67
2018-12-09T02:07:23.975Z,3.93
2018-12-09T02:09:52.493Z,3.87
2018-12-09T02:12:20.761Z,3.53
2018-12-09T02:14:48.997Z,3.57
2018-12-09T02:17:17.436Z,4.17
2018-12-09T02:19:45.969Z,3.73
2018-12-09T02:22:14.250Z,3.33
2018-12-09T02:24:42.516Z,4.07
2018-12-09T02:27:10.797Z,3.23
2018-12-09T02:29:39.187Z,3.23
2018-12-09T02:32:08.101Z,3.57
2018-12-09T02:34:36.409Z,3.30
2018-12-09T02:37:04.727Z,3.77
2018-12-09T02:39:32.983Z,3.27
2018-12-09T02:42:01.279Z,4.13
2018-12-09T02:44:29.537Z,3.27
2018-12-09T02:46:57.840Z,3.47
2018-12-09T02:49:26.094Z,3.73
2018-12-09T02:51:54.321Z,3.30
2018-12-09T02:54:22.846Z,3.23
2018-12-09T02:56:51.142Z,3.17
2018-12-09T02:59:19.411Z,3.83
2018-12-09T03:01:47.672Z,3.80
2018-12-09T03:04:16.192Z,3.07
2018-12-09T03:06:44.439Z,4.03
2018-12-09T03:09:12.848Z,3.80
2018-12-09T03:11:41.094Z,3.13
2018-12-09T03:14:09.313Z,3.33
2018-12-09T03:16:37.544Z,3.90
2018-12-09T03:19:05.944Z,4.17
2018-12-09T03:21:34.296Z,3.87
2018-12-09T03:24:02.510Z,3.50
2018-12-09T03:26:30.896Z,3.77
2018-12-09T03:28:59.425Z,3.37
2018-12-09T03:31:27.717Z,3.57
2018-12-09T03:33:55.982Z,4.27
2018-12-09T03:36:24.279Z,2.70
2018-12-09T03:38:52.541Z,2.60
2018-12-09T03:41:20.822Z,3.20
2018-12-09T03:43:49.007Z,2.47
2018-12-09T03:46:17.322Z,3.17
2018-12-09T03:48:45.641Z,2.37
2018-12-09T03:51:13.922Z,2.40
2018-12-09T03:53:42.189Z,2.47
2018-12-09T03:56:10.406Z,2.47
2018-12-09T03:58:39.407Z,2.50
2018-12-09T04:01:07.942Z,2.17
2018-12-09T04:03:36.614Z,2.03
2018-12-09T04:06:05.033Z,1.77
2018-12-09T04:08:33.278Z,1.40
2018-12-09T04:11:01.567Z,1.10
2018-12-09T04:13:29.853Z,1.60
2018-12-09T04:15:58.293Z,1.40
2018-12-09T04:18:26.616Z,1.87
2018-12-09T04:20:54.925Z,1.20
2018-12-09T04:23:23.862Z,1.30
2018-12-09T04:25:52.142Z,1.10
2018-12-09T04:28:20.424Z,1.50
2018-12-09T04:30:48.692Z,1.27
2018-12-09T04:33:17.034Z,1.83
2018-12-09T04:35:45.441Z,1.80
2018-12-09T04:38:13.668Z,2.20
2018-12-09T04:40:41.974Z,2.50
2018-12-09T04:43:10.276Z,3.07
2018-12-09T04:45:39.066Z,2.67
2018-12-09T04:48:07.284Z,2.70
2018-12-09T04:50:35.821Z,3.97
2018-12-09T04:53:04.097Z,2.70
2018-12-09T04:55:32.485Z,4.07
2018-12-09T04:58:00.749Z,3.50
2018-12-09T05:00:40.220Z,2.93
2018-12-09T05:03:08.554Z,3.27
2018-12-09T05:05:36.749Z,3.50
2018-12-09T05:08:05.018Z,3.57
2018-12-09T05:10:33.397Z,3.30
2018-12-09T05:13:02.015Z,4.17
2018-12-09T05:15:30.253Z,3.23
2018-12-09T05:17:58.468Z,3.30
2018-12-09T05:20:26.828Z,3.70
2018-12-09T05:22:55.096Z,3.60
2018-12-09T05:25:23.484Z,3.23
2018-12-09T05:27:51.690Z,3.20
2018-12-09T05:30:20.152Z,4.07
2018-12-09T05:32:48.416Z,3.73
2018-12-09T05:35:16.789Z,3.87
2018-12-09T05:37:45.167Z,4.33
2018-12-09T05:40:13.719Z,4.87
2018-12-09T05:42:42.133Z,4.13
2018-12-09T05:45:10.481Z,5.27
2018-12-09T05:47:39.091Z,4.07
2018-12-09T05:50:07.540Z,4.30
2018-12-09T05:52:35.839Z,3.47
2018-12-09T05:55:05.000Z,3.80
2018-12-09T05:57:33.212Z,4.03
2018-12-09T06:00:01.743Z,3.40
2018-12-09T06:02:41.258Z,3.67
2018-12-09T06:05:09.531Z,3.13
2018-12-09T06:07:37.717Z,3.77
2018-12-09T06:10:06.684Z,2.93
2018-12-09T06:12:34.937Z,3.60
2018-12-09T06:15:03.349Z,3.97
2018-12-09T06:17:32.170Z,3.17
2018-12-09T06:20:00.393Z,3.73
2018-12-09T06:22:29.361Z,4.20
2018-12-09T06:24:57.670Z,3.80
2018-12-09T06:27:25.929Z,3.50
2018-12-09T06:29:54.158Z,3.67
2018-12-09T06:32:22.401Z,4.97
2018-12-09T06:34:50.670Z,3.97
2018-12-09T06:37:18.928Z,4.87
2018-12-09T06:39:47.233Z,4.43
2018-12-09T06:42:16.249Z,4.50
2018-12-09T06:44:44.570Z,4.03
2018-12-09T06:47:12.806Z,4.33
2018-12-09T06:49:41.121Z,4.53
2018-12-09T06:52:09.336Z,4.67
2018-12-09T06:54:37.557Z,4.70
2018-12-09T06:57:06.046Z,3.80
2018-12-09T06:59:34.489Z,4.33
2018-12-09T07:02:02.720Z,4.37
2018-12-09T07:04:30.982Z,3.60
2018-12-09T07:06:59.193Z,3.73
2018-12-09T07:09:27.403Z,3.87
2018-12-09T07:11:55.821Z,3.67
2018-12-09T07:14:24.075Z,4.20
2018-12-09T07:16:52.238Z,3.00
2018-12-09T07:19:20.706Z,3.50
2018-12-09T07:21:49.390Z,4.57
2018-12-09T07:24:17.716Z,3.30
2018-12-09T07:26:45.917Z,3.10
2018-12-09T07:29:14.149Z,3.60
2018-12-09T07:31:42.953Z,2.97
2018-12-09T07:34:11.210Z,3.50
2018-12-09T07:36:39.488Z,3.23
2018-12-09T07:39:08.762Z,3.03
2018-12-09T07:41:37.071Z,3.20
2018-12-09T07:44:05.352Z,3.43
2018-12-09T07:46:33.617Z,3.30
2018-12-09T07:49:02.000Z,2.73
2018-12-09T07:51:30.220Z,3.33
2018-12-09T07:53:58.432Z,3.53
2018-12-09T07:56:26.623Z,3.37
2018-12-09T07:58:54.792Z,3.87
2018-12-09T08:01:23.006Z,3.03
2018-12-09T08:03:51.357Z,3.23
2018-12-09T08:06:19.517Z,3.13
2018-12-09T08:08:47.800Z,3.47
2018-12-09T08:11:16.083Z,3.00
2018-12-09T08:13:44.325Z,3.63
2018-12-09T08:16:12.568Z,3.20
2018-12-09T08:18:40.724Z,3.07
2018-12-09T08:21:09.572Z,3.57
2018-12-09T08:23:37.865Z,3.87
2018-12-09T08:26:06.036Z,3.87
2018-12-09T08:28:34.328Z,2.83
2018-12-09T08:31:02.569Z,3.03
2018-12-09T08:33:30.724Z,3.90
2018-12-09T08:36:00.016Z,2.90
2018-12-09T08:38:28.244Z,2.80
2018-12-09T08:40:56.401Z,3.10
2018-12-09T08:43:24.885Z,3.10
2018-12-09T08:45:53.149Z,3.13
2018-12-09T08:48:21.428Z,3.23
2018-12-09T08:50:49.708Z,2.90
2018-12-09T08:53:17.984Z,2.87
2018-12-09T08:55:46.202Z,3.73
2018-12-09T08:58:14.346Z,2.80
2018-12-09T09:00:42.752Z,3.20
2018-12-09T09:03:10.894Z,2.40
2018-12-09T09:05:39.181Z,3.33
2018-12-09T09:08:07.386Z,3.10
2018-12-09T09:10:35.542Z,3.43
2018-12-09T09:13:04.094Z,3.60
2018-12-09T09:15:32.340Z,3.30
2018-12-09T09:18:00.533Z,3.17
2018-12-09T09:20:28.818Z,3.60
2018-12-09T09:25:49.932Z,2.97
2018-12-09T09:28:18.110Z,2.63
2018-12-09T09:30:46.292Z,3.17
2018-12-09T09:33:14.477Z,3.37
2018-12-09T09:35:42.617Z,2.53
2018-12-09T09:38:58.845Z,3.10
2018-12-09T09:41:27.851Z,3.10
2018-12-09T09:43:56.721Z,2.70
2018-12-09T09:46:25.613Z,2.73
2018-12-09T09:48:54.622Z,2.90
2018-12-09T09:51:23.456Z,2.80
2018-12-09T09:53:52.316Z,2.70
2018-12-09T09:56:21.825Z,3.37
2018-12-09T09:58:50.671Z,3.03
2018-12-09T10:01:19.580Z,2.93
2018-12-09T10:03:48.503Z,2.90
2018-12-09T10:06:17.563Z,2.93
2018-12-09T10:08:46.600Z,2.30
2018-12-09T10:11:15.436Z,2.73
2018-12-09T10:13:44.330Z,2.23
2018-12-09T10:16:13.142Z,2.90
2018-12-09T10:18:42.013Z,3.10
2018-12-09T10:21:10.897Z,3.30
2018-12-09T10:23:40.808Z,2.80
2018-12-09T10:26:09.627Z,2.87
2018-12-09T10:28:38.497Z,2.70
2018-12-09T10:31:08.297Z,3.50
2018-12-09T10:33:37.144Z,3.57
2018-12-09T10:36:06.046Z,2.97
2018-12-09T10:38:34.853Z,2.83
2018-12-09T10:41:03.786Z,3.77
2018-12-09T10:43:32.701Z,3.40
2018-12-09T10:46:01.538Z,2.30
2018-12-09T10:48:30.436Z,3.20
2018-12-09T10:50:59.941Z,3.43
2018-12-09T10:53:28.825Z,2.63
2018-12-09T10:55:57.629Z,2.70
2018-12-09T10:58:26.710Z,2.53
2018-12-09T11:02:00.801Z,2.67
2018-12-09T11:04:30.741Z,2.87
2018-12-09T11:06:59.582Z,2.80
2018-12-09T11:09:28.432Z,2.17
2018-12-09T11:11:57.321Z,2.50
2018-12-09T11:14:26.153Z,2.90
2018-12-09T11:16:55.110Z,2.43
2018-12-09T11:19:23.971Z,2.67
2018-12-09T11:21:52.868Z,2.90
2018-12-09T11:24:21.769Z,2.93
2018-12-09T11:26:50.665Z,2.80
2018-12-09T11:29:19.536Z,2.40
2018-12-09T11:31:48.445Z,2.47
2018-12-09T11:34:17.253Z,2.33
2018-12-09T11:36:46.238Z,2.70
2018-12-09T11:39:15.116Z,2.23
2018-12-09T11:41:43.972Z,2.00
2018-12-09T11:44:12.790Z,2.70
2018-12-09T11:46:41.592Z,2.00
2018-12-09T11:49:10.465Z,1.80
2018-12-09T11:51:39.473Z,1.43
2018-12-09T11:54:08.469Z,1.40
2018-12-09T11:56:37.337Z,1.67
2018-12-09T11:59:06.161Z,1.77
2018-12-09T12:01:35.129Z,1.80
2018-12-09T12:04:04.115Z,1.37
2018-12-09T12:06:33.519Z,1.10
2018-12-09T12:09:02.561Z,1.20
2018-12-09T12:11:31.502Z,1.20
2018-12-09T12:14:00.312Z,1.60
2018-12-09T12:16:29.265Z,1.30
2018-12-09T12:18:58.183Z,1.37
2018-12-09T12:21:26.989Z,1.63
2018-12-09T12:23:56.001Z,1.73
2018-12-09T12:26:24.892Z,2.10
2018-12-09T12:28:54.039Z,1.57
2018-12-09T12:31:22.942Z,1.30
2018-12-09T12:33:51.844Z,1.77
2018-12-09T12:36:20.751Z,1.20
2018-12-09T12:38:49.566Z,1.10
2018-12-09T12:41:19.205Z,0.73
2018-12-09T12:46:44.648Z,0.80
2018-12-09T12:49:13.949Z,0.80
2018-12-09T12:51:43.040Z,0.60
2018-12-09T12:54:12.028Z,0.47
2018-12-09T12:56:40.929Z,0.87
2018-12-09T12:59:09.896Z,0.70
2018-12-09T13:01:38.808Z,1.20
2018-12-09T13:04:07.697Z,1.07
2018-12-09T13:06:36.620Z,1.50
2018-12-09T13:09:07.625Z,1.40
2018-12-09T13:11:36.513Z,1.17
2018-12-09T13:14:05.558Z,1.33
2018-12-09T13:16:34.400Z,1.23
2018-12-09T13:19:03.423Z,2.80
2018-12-09T13:21:32.338Z,2.43
2018-12-09T13:24:01.750Z,1.90
2018-12-09T13:26:30.769Z,1.20
2018-12-09T13:28:59.592Z,1.00
2018-12-09T13:31:28.448Z,0.93
2018-12-09T13:33:58.385Z,0.83
2018-12-09T13:36:27.235Z,1.00
2018-12-09T13:38:56.098Z,1.37
2018-12-09T13:41:24.921Z,1.30
2018-12-09T13:43:54.665Z,1.00
2018-12-09T13:46:23.504Z,1.20
2018-12-09T13:48:52.409Z,1.77
2018-12-09T13:51:21.294Z,1.43
2018-12-09T13:53:52.218Z,1.40
2018-12-09T13:56:21.356Z,1.20
2018-12-09T13:58:50.203Z,1.20
2018-12-09T14:01:20.157Z,1.37
2018-12-09T14:03:49.006Z,1.33
2018-12-09T14:06:17.861Z,1.33
2018-12-09T14:08:46.676Z,1.50
2018-12-09T14:11:15.556Z,1.70
2018-12-09T14:13:44.421Z,1.10
2018-12-09T14:16:13.399Z,1.20
2018-12-09T14:18:46.954Z,1.20
2018-12-09T14:21:15.877Z,1.60
2018-12-09T14:23:44.806Z,2.00
2018-12-09T14:26:13.735Z,1.70
2018-12-09T14:28:42.560Z,1.73
2018-12-09T14:31:11.533Z,1.83
2018-12-09T14:33:40.429Z,2.80
2018-12-09T14:36:09.432Z,1.37
2018-12-09T14:38:38.325Z,2.13
2018-12-09T14:41:07.324Z,2.10
2018-12-09T14:43:36.146Z,2.00
2018-12-09T14:46:05.026Z,1.70
2018-12-09T14:48:33.889Z,1.83
2018-12-09T14:51:02.761Z,1.70
2018-12-09T14:53:31.701Z,1.50
2018-12-09T14:56:00.556Z,1.70
2018-12-09T14:58:29.454Z,2.00
2018-12-09T15:00:58.444Z,2.13
2018-12-09T15:03:27.329Z,1.57
2018-12-09T15:05:56.214Z,1.67
2018-12-09T15:08:25.118Z,2.63
2018-12-09T15:10:54.077Z,2.03
2018-12-09T15:13:22.953Z,1.73
2018-12-09T15:15:52.005Z,2.00
2018-12-09T15:18:20.868Z,1.80
2018-12-09T15:20:49.756Z,2.10
2018-12-09T15:23:18.665Z,1.67
2018-12-09T15:25:47.653Z,1.70
2018-12-09T15:28:16.478Z,2.00
2018-12-09T15:30:45.661Z,1.77
2018-12-09T15:33:14.545Z,2.17
2018-12-09T15:35:43.534Z,2.30
2018-12-09T15:38:12.666Z,2.10
2018-12-09T15:40:41.530Z,2.83
2018-12-09T15:43:10.516Z,2.37
2018-12-09T15:45:39.354Z,2.60
2018-12-09T15:48:08.277Z,2.10
2018-12-09T15:50:37.154Z,1.67
2018-12-09T15:53:06.049Z,1.53
2018-12-09T15:55:34.940Z,1.33
2018-12-09T15:58:03.794Z,2.17
2018-12-09T16:00:38.086Z,3.27
2018-12-09T16:03:07.276Z,3.70
2018-12-09T16:05:36.149Z,3.63
2018-12-09T16:08:04.976Z,4.50
2018-12-09T16:10:33.902Z,3.07
2018-12-09T16:13:02.869Z,2.73
2018-12-09T16:15:31.719Z,3.37
2018-12-09T16:18:00.695Z,2.23
2018-12-09T16:20:29.693Z,2.83
2018-12-09T16:22:58.705Z,2.87
2018-12-09T16:25:27.905Z,2.40
2018-12-09T16:27:56.952Z,2.93
2018-12-09T16:30:26.836Z,2.23
2018-12-09T16:32:55.697Z,2.27
2018-12-09T16:35:25.093Z,2.30
2018-12-09T16:37:53.969Z,1.80
2018-12-09T16:40:22.870Z,2.20
2018-12-09T16:42:51.756Z,2.70
2018-12-09T16:48:23.850Z,2.07
2018-12-09T16:50:52.717Z,2.30
2018-12-09T16:53:21.536Z,2.67
2018-12-09T16:55:50.513Z,2.20
2018-12-09T16:58:19.410Z,2.80
2018-12-09T17:00:48.285Z,3.13
2018-12-09T17:03:17.203Z,4.00
2018-12-09T17:05:46.480Z,3.67
2018-12-09T17:08:15.404Z,4.27
2018-12-09T17:10:44.259Z,3.60
2018-12-09T17:13:13.153Z,3.40
2018-12-09T17:15:42.046Z,3.80
2018-12-09T17:18:10.931Z,3.83
2018-12-09T17:20:39.834Z,3.43
2018-12-09T17:23:08.710Z,2.50
2018-12-09T17:25:37.661Z,2.53
2018-12-09T17:28:06.720Z,3.13
2018-12-09T17:30:35.664Z,2.07
2018-12-09T17:33:04.786Z,3.40
2018-12-09T17:35:33.616Z,4.60
2018-12-09T17:38:02.461Z,3.20
2018-12-09T17:40:31.355Z,3.07
2018-12-09T17:43:00.236Z,2.80
2018-12-09T17:45:29.253Z,2.87
2018-12-09T17:47:58.129Z,3.20
2018-12-09T17:50:27.245Z,3.03
2018-12-09T17:52:56.092Z,3.30
2018-12-09T17:55:25.006Z,3.17
2018-12-09T17:57:53.825Z,3.40
2018-12-09T18:00:22.807Z,3.50
2018-12-09T18:02:51.664Z,3.83
2018-12-09T18:05:21.500Z,2.90
2018-12-09T18:07:50.481Z,3.57
2018-12-09T18:10:19.391Z,3.23
2018-12-09T18:12:48.436Z,2.93
2018-12-09T18:15:20.045Z,2.80
2018-12-09T18:17:49.130Z,3.10
2018-12-09T18:20:18.045Z,3.27
2018-12-09T18:22:47.982Z,2.83
2018-12-09T18:25:16.928Z,2.90
2018-12-09T18:27:45.982Z,2.20
2018-12-09T18:30:14.893Z,2.70
2018-12-09T18:32:43.908Z,2.60
2018-12-09T18:35:12.881Z,2.70
2018-12-09T18:37:41.764Z,3.10
2018-12-09T18:40:10.230Z,2.40
2018-12-09T18:42:39.555Z,2.77
2018-12-09T18:45:09.327Z,2.07
2018-12-09T18:47:38.148Z,2.93
2018-12-09T18:50:07.361Z,2.87
2018-12-09T18:52:36.240Z,2.27
2018-12-09T18:55:06.308Z,2.13
2018-12-09T18:57:35.369Z,2.77
2018-12-09T19:00:04.636Z,3.00
2018-12-09T19:02:33.572Z,2.97
2018-12-09T19:05:02.633Z,3.03
2018-12-09T19:07:31.988Z,1.90
2018-12-09T19:10:02.286Z,1.90
2018-12-09T19:12:31.311Z,2.27
2018-12-09T19:15:00.297Z,2.23
2018-12-09T19:17:29.248Z,1.70
2018-12-09T19:19:58.127Z,2.10
2018-12-09T19:22:27.149Z,2.53
2018-12-09T19:24:55.998Z,2.60
2018-12-09T19:27:24.896Z,2.27
2018-12-09T19:29:53.800Z,3.33
2018-12-09T19:32:24.765Z,3.83
2018-12-09T19:34:53.628Z,2.93
2018-12-09T19:37:22.509Z,4.27
2018-12-09T19:39:51.368Z,3.30
2018-12-09T19:42:20.322Z,3.07
2018-12-09T19:44:49.558Z,2.90
2018-12-09T19:47:18.477Z,2.20
2018-12-09T19:49:47.385Z,3.30
2018-12-09T19:52:16.290Z,2.73
2018-12-09T19:54:45.158Z,3.37
2018-12-09T19:57:14.144Z,2.10
2018-12-09T19:59:43.865Z,2.33
2018-12-09T20:02:12.860Z,2.40
2018-12-09T20:04:41.742Z,1.87
2018-12-09T20:07:10.646Z,2.40
2018-12-09T20:09:39.526Z,1.90
2018-12-09T20:12:08.439Z,2.70
2018-12-09T20:14:38.536Z,2.77
2018-12-09T20:17:07.468Z,2.60
2018-12-09T20:19:37.449Z,2.57
2018-12-09T20:22:06.292Z,2.47
2018-12-09T20:24:35.264Z,3.40
2018-12-09T20:27:04.251Z,2.67
2018-12-09T20:29:34.225Z,2.80
2018-12-09T20:32:03.105Z,2.10
2018-12-09T20:34:32.044Z,3.03
2018-12-09T20:37:00.997Z,2.23
2018-12-09T20:39:29.820Z,2.53
2018-12-09T20:41:58.694Z,4.00
2018-12-09T20:44:27.553Z,2.27
2018-12-09T20:46:56.518Z,2.20
2018-12-09T20:49:25.451Z,2.40
2018-12-09T20:51:54.583Z,2.20
2018-12-09T20:54:23.397Z,2.60
2018-12-09T20:56:52.658Z,2.20
2018-12-09T20:59:21.527Z,2.10
2018-12-09T21:01:50.408Z,2.70
2018-12-09T21:04:20.221Z,2.00
2018-12-09T21:06:49.221Z,2.63
2018-12-09T21:09:18.110Z,2.33
2018-12-09T21:11:47.015Z,2.53
2018-12-09T21:14:15.884Z,2.57
2018-12-09T21:16:45.545Z,3.27
2018-12-09T21:19:14.407Z,2.40
2018-12-09T21:21:43.378Z,2.83
2018-12-09T21:24:12.392Z,2.33
2018-12-09T21:26:41.334Z,2.97
2018-12-09T21:29:10.287Z,3.57
2018-12-09T21:31:39.140Z,3.30
2018-12-09T21:34:07.993Z,3.33
2018-12-09T21:36:37.037Z,3.10
2018-12-09T21:39:07.488Z,3.23
2018-12-09T21:41:38.393Z,3.30
2018-12-09T21:44:08.632Z,2.80
2018-12-09T21:46:37.496Z,2.77
2018-12-09T21:49:06.429Z,3.60
2018-12-09T21:51:35.329Z,3.40
2018-12-09T21:54:04.602Z,2.50
2018-12-09T21:56:33.493Z,2.97
2018-12-09T21:59:02.373Z,3.40
2018-12-09T22:01:31.264Z,2.77
2018-12-09T22:04:01.064Z,2.37
2018-12-09T22:06:30.073Z,2.73
2018-12-09T22:08:58.949Z,2.70
2018-12-09T22:11:27.965Z,2.70
2018-12-09T22:13:57.257Z,3.03
2018-12-09T22:16:26.149Z,2.33
2018-12-09T22:18:55.197Z,2.30
2018-12-09T22:21:24.122Z,3.00
2018-12-09T22:23:53.018Z,3.13
2018-12-09T22:26:21.900Z,3.00
2018-12-09T22:28:50.794Z,2.57
2018-12-09T22:31:19.684Z,3.13
2018-12-09T22:33:48.580Z,2.70
2018-12-09T22:36:17.591Z,2.37
2018-12-09T22:38:46.452Z,2.33
2018-12-09T22:41:15.325Z,3.10
2018-12-09T22:43:44.193Z,2.93
2018-12-09T22:46:13.030Z,2.57
2018-12-09T22:48:41.900Z,2.23
2018-12-09T22:51:10.932Z,2.87
2018-12-09T22:53:39.797Z,2.83
2018-12-09T22:56:08.623Z,1.90
2018-12-09T22:58:37.581Z,2.33
2018-12-09T23:01:12.105Z,2.10
2018-12-09T23:03:41.010Z,2.37
2018-12-09T23:06:09.849Z,2.13
2018-12-09T23:08:38.869Z,2.50
2018-12-09T23:11:07.761Z,2.90
2018-12-09T23:13:36.594Z,2.20
2018-12-09T23:16:05.725Z,2.20
2018-12-09T23:18:34.641Z,2.33
2018-12-09T23:21:03.528Z,2.10
2018-12-09T23:23:32.820Z,2.50
2018-12-09T23:26:00.913Z,2.30
2018-12-09T23:28:29.802Z,2.77
2018-12-09T23:30:59.952Z,3.17
2018-12-09T23:33:28.816Z,2.80
2018-12-09T23:35:57.709Z,2.70
2018-12-09T23:38:26.581Z,3.10
2018-12-09T23:40:55.464Z,2.90
2018-12-09T23:43:24.293Z,2.67
2018-12-09T23:45:53.249Z,2.80
2018-12-09T23:48:22.136Z,2.60
2018-12-09T23:50:51.024Z,2.90
2018-12-09T23:53:19.953Z,3.00
2018-12-09T23:55:48.805Z,2.80
2018-12-09T23:58:17.709Z,3.00
